YAYE/AYQ METAR and TAF weather

Enter ICAO airport designator
Station Type Date Time Source
YAYE METAR 2022/06/19 09:16 UTC NOAA

YAYE 190916Z AUTO 36003KT 9999 // NCD 19/01 Q1016


Station Type Date Time Source
YAYE Decoded METAR 2022/06/19 09:16 UTC NOAA

Ayers Rock, Australia (YAYE) 25-11S 130-58E
Jun 19, 2022 - 05:16 AM EDT / 2022.06.19 0916 UTC
Wind: from the N (360 degrees) at 3 MPH (3 KT):0
Visibility: greater than 7 mile(s):0
Temperature: 66 F (19 C)
Dew Point: 33 F (1 C)
Relative Humidity: 29%
Pressure (altimeter): 30.00 in. Hg (1016 hPa)
ob: YAYE 190916Z AUTO 36003KT 9999 // NCD 19/01 Q1016
cycle: 9

Station Type Date Time Source
YAYE TAF UTC NOAA

Error!

Example: see airport list